sensor_id;sensor_type;location;lat;lon;timestamp;P1;durP1;ratioP1;P2;durP2;ratioP2
22646;SDS011;11490;42.726;23.268;2022-10-31T00:00:16;9.18;;;3.28;;
22646;SDS011;11490;42.726;23.268;2022-10-31T00:02:42;5.30;;;3.47;;
22646;SDS011;11490;42.726;23.268;2022-10-31T00:05:10;6.25;;;3.88;;
22646;SDS011;11490;42.726;23.268;2022-10-31T00:07:36;10.00;;;3.90;;
22646;SDS011;11490;42.726;23.268;2022-10-31T00:10:01;6.10;;;4.40;;
22646;SDS011;11490;42.726;23.268;2022-10-31T00:12:27;5.80;;;3.72;;
22646;SDS011;11490;42.726;23.268;2022-10-31T00:14:52;6.82;;;3.97;;
22646;SDS011;11490;42.726;23.268;2022-10-31T00:17:18;5.85;;;3.78;;
22646;SDS011;11490;42.726;23.268;2022-10-31T00:19:43;5.88;;;3.78;;
22646;SDS011;11490;42.726;23.268;2022-10-31T00:22:09;4.68;;;3.45;;
22646;SDS011;11490;42.726;23.268;2022-10-31T00:24:34;7.43;;;3.78;;
22646;SDS011;11490;42.726;23.268;2022-10-31T00:27:00;4.15;;;3.20;;
22646;SDS011;11490;42.726;23.268;2022-10-31T00:29:25;7.93;;;4.40;;
22646;SDS011;11490;42.726;23.268;2022-10-31T00:31:51;4.88;;;3.78;;
22646;SDS011;11490;42.726;23.268;2022-10-31T00:34:17;8.77;;;4.55;;
22646;SDS011;11490;42.726;23.268;2022-10-31T00:36:42;6.85;;;3.80;;
22646;SDS011;11490;42.726;23.268;2022-10-31T00:39:08;10.10;;;3.97;;
22646;SDS011;11490;42.726;23.268;2022-10-31T00:41:33;5.40;;;3.35;;
22646;SDS011;11490;42.726;23.268;2022-10-31T00:43:58;6.00;;;3.92;;
22646;SDS011;11490;42.726;23.268;2022-10-31T00:46:24;4.85;;;3.88;;
22646;SDS011;11490;42.726;23.268;2022-10-31T00:48:49;6.30;;;4.18;;
22646;SDS011;11490;42.726;23.268;2022-10-31T00:51:15;4.18;;;3.30;;
22646;SDS011;11490;42.726;23.268;2022-10-31T00:53:40;6.50;;;3.90;;
22646;SDS011;11490;42.726;23.268;2022-10-31T00:56:06;9.25;;;4.18;;
22646;SDS011;11490;42.726;23.268;2022-10-31T00:58:31;4.70;;;3.55;;
22646;SDS011;11490;42.726;23.268;2022-10-31T01:00:57;5.57;;;3.65;;
22646;SDS011;11490;42.726;23.268;2022-10-31T01:03:27;6.55;;;3.67;;
22646;SDS011;11490;42.726;23.268;2022-10-31T01:06:01;6.40;;;3.50;;
22646;SDS011;11490;42.726;23.268;2022-10-31T01:08:29;5.47;;;3.15;;
22646;SDS011;11490;42.726;23.268;2022-10-31T01:11:02;4.82;;;3.38;;
22646;SDS011;11490;42.726;23.268;2022-10-31T01:13:39;6.32;;;3.63;;
22646;SDS011;11490;42.726;23.268;2022-10-31T01:16:04;5.13;;;3.50;;
22646;SDS011;11490;42.726;23.268;2022-10-31T01:18:31;7.03;;;4.28;;
22646;SDS011;11490;42.726;23.268;2022-10-31T01:21:02;5.85;;;4.13;;
22646;SDS011;11490;42.726;23.268;2022-10-31T01:23:29;4.72;;;4.07;;
22646;SDS011;11490;42.726;23.268;2022-10-31T01:26:02;5.53;;;3.92;;
22646;SDS011;11490;42.726;23.268;2022-10-31T01:28:30;5.35;;;3.33;;
22646;SDS011;11490;42.726;23.268;2022-10-31T01:30:55;6.28;;;3.63;;
22646;SDS011;11490;42.726;23.268;2022-10-31T01:33:24;6.20;;;3.83;;
22646;SDS011;11490;42.726;23.268;2022-10-31T01:35:49;8.57;;;5.05;;
22646;SDS011;11490;42.726;23.268;2022-10-31T01:38:15;8.52;;;4.07;;
22646;SDS011;11490;42.726;23.268;2022-10-31T01:40:40;8.20;;;5.13;;
22646;SDS011;11490;42.726;23.268;2022-10-31T01:43:09;3.97;;;3.58;;
22646;SDS011;11490;42.726;23.268;2022-10-31T01:45:37;10.13;;;5.07;;
22646;SDS011;11490;42.726;23.268;2022-10-31T01:48:03;7.68;;;4.22;;
22646;SDS011;11490;42.726;23.268;2022-10-31T01:50:30;5.13;;;3.60;;
22646;SDS011;11490;42.726;23.268;2022-10-31T01:53:00;7.70;;;4.30;;
22646;SDS011;11490;42.726;23.268;2022-10-31T01:55:28;7.05;;;4.10;;
22646;SDS011;11490;42.726;23.268;2022-10-31T01:57:58;6.85;;;4.63;;
22646;SDS011;11490;42.726;23.268;2022-10-31T02:00:29;5.10;;;3.63;;
22646;SDS011;11490;42.726;23.268;2022-10-31T02:02:55;7.93;;;4.93;;
22646;SDS011;11490;42.726;23.268;2022-10-31T02:05:24;6.38;;;4.10;;
22646;SDS011;11490;42.726;23.268;2022-10-31T02:10:27;9.35;;;4.35;;
22646;SDS011;11490;42.726;23.268;2022-10-31T02:12:56;5.10;;;4.00;;
22646;SDS011;11490;42.726;23.268;2022-10-31T02:15:23;4.88;;;3.90;;
22646;SDS011;11490;42.726;23.268;2022-10-31T02:17:48;8.00;;;4.63;;
22646;SDS011;11490;42.726;23.268;2022-10-31T02:20:15;8.20;;;4.20;;
22646;SDS011;11490;42.726;23.268;2022-10-31T02:36:42;5.63;;;3.85;;
22646;SDS011;11490;42.726;23.268;2022-10-31T02:39:23;6.13;;;4.25;;
22646;SDS011;11490;42.726;23.268;2022-10-31T02:42:07;7.72;;;4.10;;
22646;SDS011;11490;42.726;23.268;2022-10-31T02:44:36;6.07;;;4.03;;
22646;SDS011;11490;42.726;23.268;2022-10-31T02:47:17;6.50;;;4.13;;
22646;SDS011;11490;42.726;23.268;2022-10-31T02:49:53;5.80;;;3.75;;
22646;SDS011;11490;42.726;23.268;2022-10-31T02:52:26;5.47;;;3.95;;
22646;SDS011;11490;42.726;23.268;2022-10-31T02:54:53;8.50;;;4.53;;
22646;SDS011;11490;42.726;23.268;2022-10-31T02:57:20;9.80;;;4.68;;
22646;SDS011;11490;42.726;23.268;2022-10-31T02:59:52;10.50;;;4.78;;
22646;SDS011;11490;42.726;23.268;2022-10-31T03:02:24;5.60;;;4.38;;
22646;SDS011;11490;42.726;23.268;2022-10-31T03:13:26;8.80;;;4.75;;
22646;SDS011;11490;42.726;23.268;2022-10-31T03:15:58;9.48;;;5.68;;
22646;SDS011;11490;42.726;23.268;2022-10-31T03:18:36;5.45;;;4.53;;
22646;SDS011;11490;42.726;23.268;2022-10-31T03:21:06;9.50;;;5.72;;
22646;SDS011;11490;42.726;23.268;2022-10-31T03:23:37;7.28;;;5.22;;
22646;SDS011;11490;42.726;23.268;2022-10-31T03:26:05;7.78;;;4.88;;
22646;SDS011;11490;42.726;23.268;2022-10-31T03:28:36;8.13;;;5.00;;
22646;SDS011;11490;42.726;23.268;2022-10-31T03:31:07;7.18;;;4.95;;
22646;SDS011;11490;42.726;23.268;2022-10-31T03:33:36;8.63;;;5.35;;
22646;SDS011;11490;42.726;23.268;2022-10-31T03:36:05;6.05;;;5.13;;
22646;SDS011;11490;42.726;23.268;2022-10-31T03:38:34;7.80;;;5.45;;
22646;SDS011;11490;42.726;23.268;2022-10-31T03:41:02;8.88;;;4.75;;
22646;SDS011;11490;42.726;23.268;2022-10-31T03:43:32;6.45;;;4.57;;
22646;SDS011;11490;42.726;23.268;2022-10-31T03:46:03;7.75;;;4.93;;
22646;SDS011;11490;42.726;23.268;2022-10-31T03:48:29;7.85;;;5.07;;
22646;SDS011;11490;42.726;23.268;2022-10-31T03:59:05;6.97;;;4.55;;
22646;SDS011;11490;42.726;23.268;2022-10-31T04:01:37;7.72;;;5.13;;
22646;SDS011;11490;42.726;23.268;2022-10-31T04:04:06;8.35;;;5.90;;
22646;SDS011;11490;42.726;23.268;2022-10-31T04:06:31;10.70;;;6.55;;
22646;SDS011;11490;42.726;23.268;2022-10-31T04:09:01;10.85;;;6.05;;
22646;SDS011;11490;42.726;23.268;2022-10-31T04:11:31;36.65;;;18.20;;
22646;SDS011;11490;42.726;23.268;2022-10-31T04:14:01;30.73;;;17.00;;
22646;SDS011;11490;42.726;23.268;2022-10-31T04:16:29;36.22;;;17.75;;
22646;SDS011;11490;42.726;23.268;2022-10-31T04:18:55;35.33;;;16.85;;
22646;SDS011;11490;42.726;23.268;2022-10-31T04:21:26;31.45;;;14.68;;
22646;SDS011;11490;42.726;23.268;2022-10-31T04:23:53;22.50;;;11.45;;
22646;SDS011;11490;42.726;23.268;2022-10-31T04:26:19;24.52;;;11.23;;
22646;SDS011;11490;42.726;23.268;2022-10-31T04:28:45;24.48;;;13.60;;
22646;SDS011;11490;42.726;23.268;2022-10-31T04:31:10;19.80;;;11.02;;
22646;SDS011;11490;42.726;23.268;2022-10-31T04:33:36;21.45;;;12.25;;
22646;SDS011;11490;42.726;23.268;2022-10-31T04:36:02;19.30;;;9.65;;
22646;SDS011;11490;42.726;23.268;2022-10-31T04:38:28;21.40;;;9.65;;
22646;SDS011;11490;42.726;23.268;2022-10-31T04:40:53;19.98;;;10.35;;
22646;SDS011;11490;42.726;23.268;2022-10-31T04:43:18;16.60;;;10.00;;
22646;SDS011;11490;42.726;23.268;2022-10-31T04:45:44;24.88;;;10.93;;
22646;SDS011;11490;42.726;23.268;2022-10-31T04:48:09;18.88;;;11.27;;
22646;SDS011;11490;42.726;23.268;2022-10-31T04:50:35;20.88;;;10.52;;
22646;SDS011;11490;42.726;23.268;2022-10-31T04:53:00;17.15;;;8.85;;
22646;SDS011;11490;42.726;23.268;2022-10-31T04:55:26;17.15;;;9.88;;
22646;SDS011;11490;42.726;23.268;2022-10-31T04:57:51;17.38;;;9.65;;
22646;SDS011;11490;42.726;23.268;2022-10-31T05:00:17;12.77;;;8.35;;
22646;SDS011;11490;42.726;23.268;2022-10-31T05:02:49;19.52;;;10.48;;
22646;SDS011;11490;42.726;23.268;2022-10-31T05:05:19;12.27;;;8.02;;
22646;SDS011;11490;42.726;23.268;2022-10-31T05:07:47;14.95;;;9.80;;
22646;SDS011;11490;42.726;23.268;2022-10-31T05:10:14;14.00;;;8.50;;
22646;SDS011;11490;42.726;23.268;2022-10-31T05:12:45;16.10;;;8.57;;
22646;SDS011;11490;42.726;23.268;2022-10-31T05:15:18;13.73;;;8.27;;
22646;SDS011;11490;42.726;23.268;2022-10-31T05:17:45;15.40;;;8.60;;
22646;SDS011;11490;42.726;23.268;2022-10-31T05:20:11;12.25;;;8.35;;
22646;SDS011;11490;42.726;23.268;2022-10-31T05:22:41;10.90;;;7.90;;
22646;SDS011;11490;42.726;23.268;2022-10-31T05:25:10;15.13;;;8.82;;
22646;SDS011;11490;42.726;23.268;2022-10-31T05:27:43;15.70;;;9.30;;
22646;SDS011;11490;42.726;23.268;2022-10-31T05:30:11;30.13;;;12.65;;
22646;SDS011;11490;42.726;23.268;2022-10-31T05:32:39;51.55;;;23.45;;
22646;SDS011;11490;42.726;23.268;2022-10-31T05:35:11;27.58;;;12.48;;
22646;SDS011;11490;42.726;23.268;2022-10-31T05:37:38;18.20;;;11.35;;
22646;SDS011;11490;42.726;23.268;2022-10-31T05:40:05;55.95;;;17.10;;
22646;SDS011;11490;42.726;23.268;2022-10-31T05:42:32;21.58;;;12.18;;
22646;SDS011;11490;42.726;23.268;2022-10-31T05:44:58;20.08;;;14.13;;
22646;SDS011;11490;42.726;23.268;2022-10-31T05:47:23;27.38;;;14.25;;
22646;SDS011;11490;42.726;23.268;2022-10-31T05:49:49;23.85;;;13.85;;
22646;SDS011;11490;42.726;23.268;2022-10-31T05:52:15;30.50;;;14.63;;
22646;SDS011;11490;42.726;23.268;2022-10-31T05:54:40;21.13;;;14.15;;
22646;SDS011;11490;42.726;23.268;2022-10-31T05:57:05;24.23;;;15.88;;
22646;SDS011;11490;42.726;23.268;2022-10-31T05:59:31;28.88;;;16.65;;
22646;SDS011;11490;42.726;23.268;2022-10-31T06:01:57;23.13;;;14.50;;
22646;SDS011;11490;42.726;23.268;2022-10-31T06:04:22;21.92;;;12.38;;
22646;SDS011;11490;42.726;23.268;2022-10-31T06:06:48;18.73;;;12.30;;
22646;SDS011;11490;42.726;23.268;2022-10-31T06:09:13;20.65;;;12.35;;
22646;SDS011;11490;42.726;23.268;2022-10-31T06:11:39;15.70;;;11.20;;
22646;SDS011;11490;42.726;23.268;2022-10-31T06:14:04;23.10;;;13.38;;
22646;SDS011;11490;42.726;23.268;2022-10-31T06:16:30;17.13;;;12.23;;
22646;SDS011;11490;42.726;23.268;2022-10-31T06:18:55;19.88;;;12.65;;
22646;SDS011;11490;42.726;23.268;2022-10-31T06:21:21;14.43;;;10.05;;
22646;SDS011;11490;42.726;23.268;2022-10-31T06:23:46;12.18;;;8.15;;
22646;SDS011;11490;42.726;23.268;2022-10-31T06:26:11;13.82;;;9.13;;
22646;SDS011;11490;42.726;23.268;2022-10-31T06:28:37;13.55;;;8.30;;
22646;SDS011;11490;42.726;23.268;2022-10-31T06:31:02;17.23;;;9.18;;
22646;SDS011;11490;42.726;23.268;2022-10-31T06:33:28;12.60;;;8.77;;
22646;SDS011;11490;42.726;23.268;2022-10-31T06:35:54;13.82;;;9.40;;
22646;SDS011;11490;42.726;23.268;2022-10-31T06:38:19;18.63;;;9.52;;
22646;SDS011;11490;42.726;23.268;2022-10-31T06:40:44;17.27;;;11.23;;
22646;SDS011;11490;42.726;23.268;2022-10-31T06:43:10;22.38;;;13.60;;
22646;SDS011;11490;42.726;23.268;2022-10-31T06:45:36;39.33;;;16.85;;
22646;SDS011;11490;42.726;23.268;2022-10-31T06:48:02;25.50;;;13.20;;
22646;SDS011;11490;42.726;23.268;2022-10-31T06:50:28;19.13;;;14.05;;
22646;SDS011;11490;42.726;23.268;2022-10-31T06:52:54;20.98;;;13.75;;
22646;SDS011;11490;42.726;23.268;2022-10-31T06:55:22;17.83;;;10.32;;
22646;SDS011;11490;42.726;23.268;2022-10-31T06:57:52;14.00;;;9.15;;
22646;SDS011;11490;42.726;23.268;2022-10-31T07:00:19;15.68;;;9.88;;
22646;SDS011;11490;42.726;23.268;2022-10-31T07:02:52;27.25;;;10.65;;
22646;SDS011;11490;42.726;23.268;2022-10-31T07:05:37;21.60;;;9.95;;
22646;SDS011;11490;42.726;23.268;2022-10-31T07:08:06;20.83;;;12.93;;
22646;SDS011;11490;42.726;23.268;2022-10-31T07:10:34;29.83;;;15.63;;
22646;SDS011;11490;42.726;23.268;2022-10-31T07:13:01;30.17;;;15.63;;
22646;SDS011;11490;42.726;23.268;2022-10-31T07:15:30;16.67;;;11.18;;
22646;SDS011;11490;42.726;23.268;2022-10-31T07:18:05;28.38;;;9.98;;
22646;SDS011;11490;42.726;23.268;2022-10-31T07:20:32;15.05;;;9.60;;
22646;SDS011;11490;42.726;23.268;2022-10-31T07:22:57;18.65;;;10.75;;
22646;SDS011;11490;42.726;23.268;2022-10-31T07:25:23;18.20;;;9.80;;
22646;SDS011;11490;42.726;23.268;2022-10-31T07:27:49;20.10;;;9.48;;
22646;SDS011;11490;42.726;23.268;2022-10-31T07:30:15;18.88;;;10.20;;
22646;SDS011;11490;42.726;23.268;2022-10-31T07:32:44;15.30;;;10.98;;
22646;SDS011;11490;42.726;23.268;2022-10-31T07:35:12;17.00;;;10.40;;
22646;SDS011;11490;42.726;23.268;2022-10-31T07:37:39;17.65;;;10.95;;
22646;SDS011;11490;42.726;23.268;2022-10-31T07:40:05;16.90;;;9.45;;
22646;SDS011;11490;42.726;23.268;2022-10-31T07:42:36;19.88;;;10.25;;
22646;SDS011;11490;42.726;23.268;2022-10-31T07:45:03;20.50;;;11.20;;
22646;SDS011;11490;42.726;23.268;2022-10-31T07:47:39;14.60;;;8.88;;
22646;SDS011;11490;42.726;23.268;2022-10-31T07:50:09;19.85;;;10.05;;
22646;SDS011;11490;42.726;23.268;2022-10-31T07:52:36;17.80;;;9.35;;
22646;SDS011;11490;42.726;23.268;2022-10-31T07:55:02;14.52;;;10.07;;
22646;SDS011;11490;42.726;23.268;2022-10-31T07:57:28;12.82;;;9.13;;
22646;SDS011;11490;42.726;23.268;2022-10-31T07:59:54;17.05;;;9.00;;
22646;SDS011;11490;42.726;23.268;2022-10-31T08:02:19;20.77;;;9.70;;
22646;SDS011;11490;42.726;23.268;2022-10-31T08:04:45;18.30;;;8.27;;
22646;SDS011;11490;42.726;23.268;2022-10-31T08:07:11;15.73;;;7.93;;
22646;SDS011;11490;42.726;23.268;2022-10-31T08:09:36;16.50;;;8.43;;
22646;SDS011;11490;42.726;23.268;2022-10-31T08:12:01;17.38;;;9.10;;
22646;SDS011;11490;42.726;23.268;2022-10-31T08:14:27;16.92;;;7.93;;
22646;SDS011;11490;42.726;23.268;2022-10-31T08:16:53;8.82;;;6.57;;
22646;SDS011;11490;42.726;23.268;2022-10-31T08:19:19;13.23;;;7.30;;
22646;SDS011;11490;42.726;23.268;2022-10-31T08:21:44;14.98;;;8.13;;
22646;SDS011;11490;42.726;23.268;2022-10-31T08:24:10;14.10;;;8.15;;
22646;SDS011;11490;42.726;23.268;2022-10-31T08:26:35;12.70;;;7.38;;
22646;SDS011;11490;42.726;23.268;2022-10-31T08:29:00;14.48;;;7.53;;
22646;SDS011;11490;42.726;23.268;2022-10-31T08:31:26;12.43;;;8.00;;
22646;SDS011;11490;42.726;23.268;2022-10-31T08:33:53;15.85;;;8.07;;
22646;SDS011;11490;42.726;23.268;2022-10-31T08:36:18;11.73;;;8.13;;
22646;SDS011;11490;42.726;23.268;2022-10-31T08:38:46;11.45;;;7.28;;
22646;SDS011;11490;42.726;23.268;2022-10-31T08:41:12;15.38;;;8.00;;
22646;SDS011;11490;42.726;23.268;2022-10-31T08:43:37;12.25;;;7.45;;
22646;SDS011;11490;42.726;23.268;2022-10-31T08:46:03;10.80;;;6.93;;
22646;SDS011;11490;42.726;23.268;2022-10-31T08:48:28;10.68;;;7.40;;
22646;SDS011;11490;42.726;23.268;2022-10-31T08:50:55;11.48;;;7.38;;
22646;SDS011;11490;42.726;23.268;2022-10-31T08:53:23;13.60;;;7.60;;
22646;SDS011;11490;42.726;23.268;2022-10-31T08:55:48;16.98;;;7.38;;
22646;SDS011;11490;42.726;23.268;2022-10-31T08:58:17;12.07;;;7.13;;
22646;SDS011;11490;42.726;23.268;2022-10-31T09:00:44;16.00;;;7.50;;
22646;SDS011;11490;42.726;23.268;2022-10-31T09:03:16;12.23;;;7.68;;
22646;SDS011;11490;42.726;23.268;2022-10-31T09:05:44;11.45;;;7.10;;
22646;SDS011;11490;42.726;23.268;2022-10-31T09:08:10;9.05;;;6.93;;
22646;SDS011;11490;42.726;23.268;2022-10-31T09:10:37;10.98;;;6.50;;
22646;SDS011;11490;42.726;23.268;2022-10-31T09:13:04;9.60;;;6.82;;
22646;SDS011;11490;42.726;23.268;2022-10-31T09:15:32;13.43;;;7.22;;
22646;SDS011;11490;42.726;23.268;2022-10-31T09:17:59;12.70;;;7.32;;
22646;SDS011;11490;42.726;23.268;2022-10-31T09:20:25;14.98;;;6.97;;
22646;SDS011;11490;42.726;23.268;2022-10-31T09:22:58;10.55;;;5.85;;
22646;SDS011;11490;42.726;23.268;2022-10-31T09:25:25;9.68;;;6.68;;
22646;SDS011;11490;42.726;23.268;2022-10-31T09:27:55;10.82;;;6.75;;
22646;SDS011;11490;42.726;23.268;2022-10-31T09:30:24;12.73;;;6.20;;
22646;SDS011;11490;42.726;23.268;2022-10-31T09:32:54;11.80;;;6.93;;
22646;SDS011;11490;42.726;23.268;2022-10-31T09:35:24;8.98;;;6.00;;
22646;SDS011;11490;42.726;23.268;2022-10-31T09:37:53;8.25;;;5.57;;
22646;SDS011;11490;42.726;23.268;2022-10-31T09:45:45;8.55;;;5.05;;
22646;SDS011;11490;42.726;23.268;2022-10-31T09:51:23;10.13;;;5.50;;
22646;SDS011;11490;42.726;23.268;2022-10-31T09:53:48;9.40;;;5.10;;
22646;SDS011;11490;42.726;23.268;2022-10-31T09:56:21;12.27;;;6.32;;
22646;SDS011;11490;42.726;23.268;2022-10-31T09:58:52;16.75;;;6.28;;
22646;SDS011;11490;42.726;23.268;2022-10-31T10:01:34;8.77;;;5.07;;
22646;SDS011;11490;42.726;23.268;2022-10-31T10:06:47;5.15;;;4.20;;
22646;SDS011;11490;42.726;23.268;2022-10-31T10:09:15;10.73;;;4.60;;
22646;SDS011;11490;42.726;23.268;2022-10-31T10:25:32;6.00;;;4.03;;
22646;SDS011;11490;42.726;23.268;2022-10-31T10:30:42;11.35;;;3.35;;
22646;SDS011;11490;42.726;23.268;2022-10-31T10:33:32;10.00;;;3.83;;
22646;SDS011;11490;42.726;23.268;2022-10-31T10:36:26;5.30;;;3.63;;
22646;SDS011;11490;42.726;23.268;2022-10-31T10:39:27;6.22;;;3.35;;
22646;SDS011;11490;42.726;23.268;2022-10-31T10:41:58;5.15;;;3.30;;
22646;SDS011;11490;42.726;23.268;2022-10-31T10:44:46;5.03;;;3.10;;
22646;SDS011;11490;42.726;23.268;2022-10-31T10:47:44;9.18;;;4.00;;
22646;SDS011;11490;42.726;23.268;2022-10-31T10:50:24;5.68;;;3.92;;
22646;SDS011;11490;42.726;23.268;2022-10-31T10:53:02;6.70;;;3.63;;
22646;SDS011;11490;42.726;23.268;2022-10-31T10:56:07;7.53;;;3.53;;
22646;SDS011;11490;42.726;23.268;2022-10-31T10:58:29;5.65;;;3.53;;
22646;SDS011;11490;42.726;23.268;2022-10-31T11:00:54;6.05;;;3.22;;
22646;SDS011;11490;42.726;23.268;2022-10-31T11:03:20;6.68;;;3.85;;
22646;SDS011;11490;42.726;23.268;2022-10-31T11:05:47;10.18;;;3.70;;
22646;SDS011;11490;42.726;23.268;2022-10-31T11:08:35;6.65;;;3.15;;
22646;SDS011;11490;42.726;23.268;2022-10-31T11:11:05;6.57;;;3.42;;
22646;SDS011;11490;42.726;23.268;2022-10-31T11:13:39;23.02;;;4.55;;
22646;SDS011;11490;42.726;23.268;2022-10-31T11:16:07;4.70;;;2.70;;
22646;SDS011;11490;42.726;23.268;2022-10-31T11:18:42;6.47;;;3.50;;
22646;SDS011;11490;42.726;23.268;2022-10-31T11:26:33;7.63;;;3.38;;
22646;SDS011;11490;42.726;23.268;2022-10-31T11:29:00;5.95;;;2.72;;
22646;SDS011;11490;42.726;23.268;2022-10-31T11:31:28;5.95;;;3.00;;
22646;SDS011;11490;42.726;23.268;2022-10-31T11:33:59;8.70;;;3.15;;
22646;SDS011;11490;42.726;23.268;2022-10-31T11:36:27;4.32;;;3.22;;
22646;SDS011;11490;42.726;23.268;2022-10-31T11:38:55;5.68;;;3.70;;
22646;SDS011;11490;42.726;23.268;2022-10-31T11:44:00;10.20;;;3.78;;
22646;SDS011;11490;42.726;23.268;2022-10-31T11:46:44;5.90;;;3.58;;
22646;SDS011;11490;42.726;23.268;2022-10-31T11:49:18;8.32;;;3.03;;
22646;SDS011;11490;42.726;23.268;2022-10-31T11:51:49;6.60;;;3.38;;
22646;SDS011;11490;42.726;23.268;2022-10-31T11:54:22;7.70;;;2.97;;
22646;SDS011;11490;42.726;23.268;2022-10-31T11:56:50;8.30;;;3.47;;
22646;SDS011;11490;42.726;23.268;2022-10-31T11:59:30;5.40;;;3.00;;
22646;SDS011;11490;42.726;23.268;2022-10-31T12:01:57;5.93;;;3.15;;
22646;SDS011;11490;42.726;23.268;2022-10-31T12:04:32;5.25;;;3.03;;
22646;SDS011;11490;42.726;23.268;2022-10-31T12:07:05;5.78;;;3.17;;
22646;SDS011;11490;42.726;23.268;2022-10-31T12:09:33;5.55;;;2.80;;
22646;SDS011;11490;42.726;23.268;2022-10-31T12:25:43;5.47;;;3.60;;
22646;SDS011;11490;42.726;23.268;2022-10-31T12:33:43;6.30;;;3.20;;
22646;SDS011;11490;42.726;23.268;2022-10-31T12:39:24;4.78;;;2.97;;
22646;SDS011;11490;42.726;23.268;2022-10-31T12:58:26;7.80;;;2.83;;
22646;SDS011;11490;42.726;23.268;2022-10-31T13:03:47;7.13;;;3.30;;
22646;SDS011;11490;42.726;23.268;2022-10-31T13:06:24;10.65;;;7.10;;
22646;SDS011;11490;42.726;23.268;2022-10-31T13:08:59;4.78;;;3.33;;
22646;SDS011;11490;42.726;23.268;2022-10-31T13:11:30;4.32;;;3.20;;
22646;SDS011;11490;42.726;23.268;2022-10-31T13:14:01;5.00;;;2.75;;
22646;SDS011;11490;42.726;23.268;2022-10-31T13:16:50;10.02;;;3.10;;
22646;SDS011;11490;42.726;23.268;2022-10-31T13:19:18;5.13;;;2.88;;
22646;SDS011;11490;42.726;23.268;2022-10-31T13:24:13;6.90;;;2.15;;
22646;SDS011;11490;42.726;23.268;2022-10-31T13:26:48;3.90;;;2.22;;
22646;SDS011;11490;42.726;23.268;2022-10-31T13:31:54;5.68;;;2.75;;
22646;SDS011;11490;42.726;23.268;2022-10-31T13:34:24;9.02;;;2.90;;
22646;SDS011;11490;42.726;23.268;2022-10-31T13:37:04;9.65;;;2.95;;
22646;SDS011;11490;42.726;23.268;2022-10-31T13:45:49;5.45;;;3.10;;
22646;SDS011;11490;42.726;23.268;2022-10-31T13:50:42;5.28;;;2.13;;
22646;SDS011;11490;42.726;23.268;2022-10-31T13:53:20;9.15;;;2.38;;
22646;SDS011;11490;42.726;23.268;2022-10-31T13:55:50;2.58;;;1.40;;
22646;SDS011;11490;42.726;23.268;2022-10-31T13:58:35;7.05;;;2.10;;
22646;SDS011;11490;42.726;23.268;2022-10-31T14:03:40;6.03;;;1.45;;
22646;SDS011;11490;42.726;23.268;2022-10-31T14:06:08;2.85;;;1.20;;
22646;SDS011;11490;42.726;23.268;2022-10-31T14:08:37;4.03;;;1.73;;
22646;SDS011;11490;42.726;23.268;2022-10-31T14:11:08;8.65;;;2.38;;
22646;SDS011;11490;42.726;23.268;2022-10-31T14:13:44;2.72;;;1.40;;
22646;SDS011;11490;42.726;23.268;2022-10-31T14:16:25;4.15;;;1.88;;
22646;SDS011;11490;42.726;23.268;2022-10-31T14:19:06;3.40;;;1.85;;
22646;SDS011;11490;42.726;23.268;2022-10-31T14:21:40;3.20;;;1.30;;
22646;SDS011;11490;42.726;23.268;2022-10-31T14:26:53;3.75;;;1.90;;
22646;SDS011;11490;42.726;23.268;2022-10-31T14:29:22;3.05;;;1.45;;
22646;SDS011;11490;42.726;23.268;2022-10-31T14:34:57;10.85;;;2.40;;
22646;SDS011;11490;42.726;23.268;2022-10-31T14:46:07;7.10;;;1.88;;
22646;SDS011;11490;42.726;23.268;2022-10-31T14:51:36;4.28;;;1.98;;
22646;SDS011;11490;42.726;23.268;2022-10-31T14:54:06;5.53;;;2.00;;
22646;SDS011;11490;42.726;23.268;2022-10-31T14:56:40;5.40;;;2.00;;
22646;SDS011;11490;42.726;23.268;2022-10-31T14:59:14;9.65;;;2.45;;
22646;SDS011;11490;42.726;23.268;2022-10-31T15:01:48;4.45;;;2.25;;
22646;SDS011;11490;42.726;23.268;2022-10-31T15:04:23;4.13;;;2.13;;
22646;SDS011;11490;42.726;23.268;2022-10-31T15:07:32;9.57;;;2.92;;
22646;SDS011;11490;42.726;23.268;2022-10-31T15:10:01;5.57;;;2.65;;
22646;SDS011;11490;42.726;23.268;2022-10-31T15:12:30;5.28;;;2.55;;
22646;SDS011;11490;42.726;23.268;2022-10-31T15:17:59;7.22;;;2.67;;
22646;SDS011;11490;42.726;23.268;2022-10-31T15:20:26;8.63;;;3.00;;
22646;SDS011;11490;42.726;23.268;2022-10-31T15:22:57;8.98;;;3.80;;
22646;SDS011;11490;42.726;23.268;2022-10-31T15:25:25;16.25;;;4.05;;
22646;SDS011;11490;42.726;23.268;2022-10-31T15:27:56;6.40;;;3.35;;
22646;SDS011;11490;42.726;23.268;2022-10-31T15:30:22;10.27;;;3.30;;
22646;SDS011;11490;42.726;23.268;2022-10-31T15:32:49;10.15;;;3.97;;
22646;SDS011;11490;42.726;23.268;2022-10-31T15:35:22;7.28;;;3.58;;
22646;SDS011;11490;42.726;23.268;2022-10-31T15:37:56;20.90;;;3.78;;
22646;SDS011;11490;42.726;23.268;2022-10-31T15:40:24;14.38;;;4.18;;
22646;SDS011;11490;42.726;23.268;2022-10-31T15:42:52;15.48;;;5.38;;
22646;SDS011;11490;42.726;23.268;2022-10-31T15:45:22;11.48;;;5.65;;
22646;SDS011;11490;42.726;23.268;2022-10-31T15:47:57;9.25;;;5.60;;
22646;SDS011;11490;42.726;23.268;2022-10-31T15:52:56;9.32;;;4.97;;
22646;SDS011;11490;42.726;23.268;2022-10-31T15:55:26;13.93;;;7.30;;
22646;SDS011;11490;42.726;23.268;2022-10-31T15:57:55;12.32;;;7.88;;
22646;SDS011;11490;42.726;23.268;2022-10-31T16:00:36;10.63;;;6.45;;
22646;SDS011;11490;42.726;23.268;2022-10-31T16:03:06;13.15;;;7.60;;
22646;SDS011;11490;42.726;23.268;2022-10-31T16:05:53;18.73;;;8.60;;
22646;SDS011;11490;42.726;23.268;2022-10-31T16:10:59;16.33;;;7.38;;
22646;SDS011;11490;42.726;23.268;2022-10-31T16:13:40;17.17;;;7.97;;
22646;SDS011;11490;42.726;23.268;2022-10-31T16:16:17;21.95;;;9.43;;
22646;SDS011;11490;42.726;23.268;2022-10-31T16:18:45;27.02;;;11.90;;
22646;SDS011;11490;42.726;23.268;2022-10-31T16:21:11;25.60;;;13.65;;
22646;SDS011;11490;42.726;23.268;2022-10-31T16:23:38;36.47;;;18.05;;
22646;SDS011;11490;42.726;23.268;2022-10-31T16:26:09;38.67;;;17.23;;
22646;SDS011;11490;42.726;23.268;2022-10-31T16:28:49;34.40;;;16.73;;
22646;SDS011;11490;42.726;23.268;2022-10-31T16:31:27;25.30;;;16.00;;
22646;SDS011;11490;42.726;23.268;2022-10-31T16:34:17;27.63;;;15.32;;
22646;SDS011;11490;42.726;23.268;2022-10-31T16:36:44;23.33;;;13.50;;
22646;SDS011;11490;42.726;23.268;2022-10-31T16:39:10;22.33;;;12.52;;
22646;SDS011;11490;42.726;23.268;2022-10-31T16:41:39;20.58;;;11.40;;
22646;SDS011;11490;42.726;23.268;2022-10-31T16:44:13;23.45;;;12.00;;
22646;SDS011;11490;42.726;23.268;2022-10-31T16:46:41;22.83;;;12.43;;
22646;SDS011;11490;42.726;23.268;2022-10-31T16:49:10;23.27;;;11.57;;
22646;SDS011;11490;42.726;23.268;2022-10-31T16:51:36;19.80;;;11.50;;
22646;SDS011;11490;42.726;23.268;2022-10-31T16:54:01;86.80;;;38.63;;
22646;SDS011;11490;42.726;23.268;2022-10-31T16:56:28;66.03;;;32.00;;
22646;SDS011;11490;42.726;23.268;2022-10-31T16:58:57;92.82;;;41.83;;
22646;SDS011;11490;42.726;23.268;2022-10-31T17:01:27;129.43;;;60.38;;
22646;SDS011;11490;42.726;23.268;2022-10-31T17:03:53;78.45;;;33.70;;
22646;SDS011;11490;42.726;23.268;2022-10-31T17:06:18;46.10;;;20.38;;
22646;SDS011;11490;42.726;23.268;2022-10-31T17:08:44;51.42;;;23.35;;
22646;SDS011;11490;42.726;23.268;2022-10-31T17:11:13;31.98;;;14.48;;